Time;durP1;ratioP1;P1;durP2;ratioP2;P2;SDS_P1;SDS_P2;PMS_P1;PMS_P2;Temp;Humidity;BMP_temperature;BMP_pressure;BME280_temperature;BME280_humidity;BME280_pressure;Samples;Min_cycle;Max_cycle;Signal;HPM_P1;HPM_P2
2022/03/14 00:00:47;;;;;;;11.77;7.38;;;;;;;;;;5002861;28;20053;-69
2022/03/14 00:03:15;;;;;;;10.18;6.97;;;;;;;;;;5015482;28;20069;-70
2022/03/14 00:05:43;;;;;;;9.00;6.47;;;;;;;;;;4997371;28;20136;-70
2022/03/14 00:08:11;;;;;;;10.57;6.95;;;;;;;;;;4988291;28;20046;-69
2022/03/14 00:10:38;;;;;;;8.18;6.68;;;;;;;;;;4988972;28;20070;-70
2022/03/14 00:13:07;;;;;;;10.65;7.45;;;;;;;;;;5006270;28;20040;-69
2022/03/14 00:15:40;;;;;;;8.48;6.63;;;;;;;;;;5004324;28;20069;-70
2022/03/14 00:18:10;;;;;;;9.80;7.15;;;;;;;;;;4989569;28;20567;-69
2022/03/14 00:20:39;;;;;;;9.43;7.25;;;;;;;;;;4992925;28;20191;-69
2022/03/14 00:23:07;;;;;;;9.23;6.47;;;;;;;;;;5008919;28;20073;-69
2022/03/14 00:25:35;;;;;;;9.20;6.53;;;;;;;;;;5007598;28;20046;-69
2022/03/14 00:28:03;;;;;;;8.68;7.10;;;;;;;;;;5005709;28;20042;-68
2022/03/14 00:30:30;;;;;;;8.73;6.43;;;;;;;;;;5005282;28;20038;-69
2022/03/14 00:32:58;;;;;;;9.98;7.53;;;;;;;;;;4989709;28;20423;-69
2022/03/14 00:35:25;;;;;;;7.45;5.97;;;;;;;;;;4987994;28;20038;-69
2022/03/14 00:37:52;;;;;;;8.32;6.47;;;;;;;;;;4989161;28;20125;-69
2022/03/14 00:40:20;;;;;;;7.70;5.85;;;;;;;;;;4990186;28;20053;-69
2022/03/14 00:42:53;;;;;;;9.38;5.88;;;;;;;;;;5008429;28;20642;-69
2022/03/14 00:45:23;;;;;;;8.82;7.20;;;;;;;;;;5006037;28;20107;-68
2022/03/14 00:47:51;;;;;;;9.05;7.05;;;;;;;;;;4988570;28;20464;-69
2022/03/14 00:50:18;;;;;;;8.15;6.57;;;;;;;;;;4971345;28;20048;-69
2022/03/14 00:52:46;;;;;;;8.93;6.47;;;;;;;;;;4988854;28;20042;-69
2022/03/14 00:55:13;;;;;;;10.38;7.05;;;;;;;;;;4987859;28;20039;-69
2022/03/14 00:57:41;;;;;;;9.13;7.40;;;;;;;;;;5008188;28;20077;-69
2022/03/14 01:00:08;;;;;;;11.57;8.50;;;;;;;;;;5008223;28;20392;-69
2022/03/14 01:02:36;;;;;;;9.85;7.25;;;;;;;;;;5000833;28;20049;-69
2022/03/14 01:05:04;;;;;;;10.82;7.60;;;;;;;;;;4989827;28;20133;-68
2022/03/14 01:07:34;;;;;;;7.65;6.65;;;;;;;;;;5014734;28;20038;-68
2022/03/14 01:10:03;;;;;;;9.77;7.35;;;;;;;;;;5007335;28;20065;-68
2022/03/14 01:12:31;;;;;;;9.52;7.20;;;;;;;;;;5023596;28;20041;-69
2022/03/14 01:14:59;;;;;;;7.88;5.93;;;;;;;;;;5007791;28;20129;-69
2022/03/14 01:17:26;;;;;;;9.10;6.45;;;;;;;;;;4989560;28;20130;-69
2022/03/14 01:19:54;;;;;;;9.90;7.30;;;;;;;;;;4988814;28;20043;-69
2022/03/14 01:22:21;;;;;;;8.68;6.57;;;;;;;;;;5005977;28;20515;-69
2022/03/14 01:24:48;;;;;;;8.80;6.63;;;;;;;;;;5007991;28;20073;-70
2022/03/14 01:27:16;;;;;;;10.07;7.20;;;;;;;;;;4991560;28;20089;-69
2022/03/14 01:29:43;;;;;;;10.00;7.03;;;;;;;;;;4988696;28;20041;-70
2022/03/14 01:32:10;;;;;;;10.73;7.50;;;;;;;;;;5005176;28;20129;-70
2022/03/14 01:34:39;;;;;;;10.57;7.97;;;;;;;;;;5007352;28;20042;-70
2022/03/14 01:37:06;;;;;;;11.30;8.52;;;;;;;;;;5007523;28;20519;-70
2022/03/14 01:39:34;;;;;;;10.50;7.97;;;;;;;;;;5008425;28;20037;-70
2022/03/14 01:42:01;;;;;;;9.45;6.88;;;;;;;;;;5007863;28;20096;-70
2022/03/14 01:44:29;;;;;;;9.93;7.40;;;;;;;;;;5007954;28;20136;-70
2022/03/14 01:46:59;;;;;;;8.73;7.10;;;;;;;;;;4992825;28;20042;-70
2022/03/14 01:49:27;;;;;;;10.70;7.70;;;;;;;;;;4988334;28;20043;-70
2022/03/14 01:51:58;;;;;;;10.85;8.35;;;;;;;;;;5002815;28;20422;-70
2022/03/14 01:54:26;;;;;;;11.48;9.00;;;;;;;;;;5007658;28;20117;-70
2022/03/14 01:56:54;;;;;;;12.77;8.07;;;;;;;;;;4993699;28;20046;-70
2022/03/14 01:59:21;;;;;;;9.70;6.97;;;;;;;;;;4989555;28;20042;-70
2022/03/14 02:01:49;;;;;;;12.32;8.02;;;;;;;;;;4993821;28;20046;-70
2022/03/14 02:04:18;;;;;;;12.30;8.75;;;;;;;;;;4996849;28;20050;-69
2022/03/14 02:06:46;;;;;;;12.90;8.15;;;;;;;;;;5011716;28;20125;-69
2022/03/14 02:09:14;;;;;;;10.57;7.47;;;;;;;;;;5019315;28;20141;-68
2022/03/14 02:12:10;;;;;;;11.48;8.38;;;;;;;;;;5017258;28;20042;-69
2022/03/14 02:14:39;;;;;;;10.90;7.00;;;;;;;;;;4980195;28;20061;-69
2022/03/14 02:17:08;;;;;;;9.30;7.32;;;;;;;;;;4991021;28;20515;-70
2022/03/14 02:19:35;;;;;;;9.52;6.75;;;;;;;;;;4993409;28;20038;-70
2022/03/14 02:22:04;;;;;;;11.15;7.45;;;;;;;;;;4988637;28;20050;-69
2022/03/14 02:24:32;;;;;;;11.80;7.93;;;;;;;;;;5010805;28;20049;-69
2022/03/14 02:26:59;;;;;;;16.10;8.95;;;;;;;;;;5010585;28;20053;-69
2022/03/14 02:29:26;;;;;;;9.75;7.45;;;;;;;;;;5010994;28;20072;-69
2022/03/14 02:31:54;;;;;;;11.02;7.25;;;;;;;;;;5010393;28;20042;-70
2022/03/14 02:34:21;;;;;;;9.40;6.75;;;;;;;;;;5009399;28;20034;-69
2022/03/14 02:36:49;;;;;;;10.50;7.95;;;;;;;;;;4996890;28;20048;-69
2022/03/14 02:39:16;;;;;;;15.45;8.90;;;;;;;;;;4991561;28;20506;-70
2022/03/14 02:41:44;;;;;;;11.40;7.57;;;;;;;;;;5003889;28;20045;-70
2022/03/14 02:44:12;;;;;;;13.80;8.55;;;;;;;;;;5010569;28;20049;-68
2022/03/14 02:46:40;;;;;;;11.90;8.45;;;;;;;;;;5009039;28;20053;-69
2022/03/14 02:49:08;;;;;;;11.38;7.55;;;;;;;;;;5009339;28;20046;-69
2022/03/14 02:51:38;;;;;;;11.15;8.00;;;;;;;;;;5009771;28;20048;-70
2022/03/14 02:54:06;;;;;;;9.63;7.07;;;;;;;;;;5010079;28;20048;-70
2022/03/14 02:56:34;;;;;;;10.55;7.55;;;;;;;;;;5010430;28;20042;-69
2022/03/14 02:59:02;;;;;;;9.13;7.25;;;;;;;;;;5010947;28;20126;-69
2022/03/14 03:01:29;;;;;;;9.60;7.68;;;;;;;;;;5010181;28;20485;-69
2022/03/14 03:03:57;;;;;;;8.70;6.88;;;;;;;;;;5009119;28;20042;-69
2022/03/14 03:06:25;;;;;;;12.60;7.88;;;;;;;;;;5009682;28;20046;-69
2022/03/14 03:08:53;;;;;;;9.52;6.75;;;;;;;;;;5010308;28;20056;-69
2022/03/14 03:11:21;;;;;;;10.38;7.35;;;;;;;;;;5008953;28;20130;-70
2022/03/14 03:13:49;;;;;;;9.63;7.00;;;;;;;;;;5009432;28;20130;-70
2022/03/14 03:16:16;;;;;;;10.95;7.85;;;;;;;;;;5009166;28;20515;-69
2022/03/14 03:18:44;;;;;;;10.38;7.57;;;;;;;;;;5009518;28;20503;-69
2022/03/14 03:21:12;;;;;;;9.57;6.80;;;;;;;;;;5009786;28;20042;-69
2022/03/14 03:23:40;;;;;;;7.97;6.97;;;;;;;;;;5010104;28;20077;-69
2022/03/14 03:26:08;;;;;;;13.27;8.52;;;;;;;;;;5007738;28;20484;-69
2022/03/14 03:28:36;;;;;;;9.02;6.55;;;;;;;;;;5009665;28;20052;-68
2022/03/14 03:31:07;;;;;;;10.90;6.88;;;;;;;;;;5001873;28;20045;-68
2022/03/14 03:33:35;;;;;;;9.60;7.25;;;;;;;;;;4990305;28;20530;-69
2022/03/14 03:36:07;;;;;;;10.45;7.18;;;;;;;;;;4996934;28;20049;-69
2022/03/14 03:38:35;;;;;;;9.63;7.05;;;;;;;;;;5009388;28;20054;-69
2022/03/14 03:41:03;;;;;;;8.10;6.32;;;;;;;;;;5009386;28;20045;-68
2022/03/14 03:43:31;;;;;;;12.23;7.97;;;;;;;;;;5009737;28;20096;-69
2022/03/14 03:45:58;;;;;;;10.15;7.00;;;;;;;;;;5006675;28;20499;-69
2022/03/14 03:48:26;;;;;;;9.85;7.70;;;;;;;;;;5009585;28;20049;-69
2022/03/14 03:50:53;;;;;;;9.75;7.22;;;;;;;;;;5052439;23;20411;-84
2022/03/14 03:53:22;;;;;;;12.35;7.93;;;;;;;;;;5033649;28;20065;-84
2022/03/14 03:55:49;;;;;;;9.52;7.53;;;;;;;;;;5045519;28;20045;-84
2022/03/14 03:58:17;;;;;;;10.13;7.30;;;;;;;;;;5013915;28;20049;-84
2022/03/14 04:00:45;;;;;;;10.02;7.60;;;;;;;;;;5015255;28;20045;-84
2022/03/14 04:03:12;;;;;;;9.43;7.65;;;;;;;;;;5013928;28;20049;-83
2022/03/14 04:05:40;;;;;;;9.80;7.47;;;;;;;;;;5017321;28;20444;-84
2022/03/14 04:08:10;;;;;;;14.27;9.20;;;;;;;;;;5017561;28;20421;-84
2022/03/14 04:10:38;;;;;;;8.63;7.07;;;;;;;;;;5013630;28;20445;-84
2022/03/14 04:13:06;;;;;;;12.80;8.52;;;;;;;;;;5030214;28;20471;-84
2022/03/14 04:15:44;;;;;;;16.48;7.85;;;;;;;;;;5030886;28;20395;-85
2022/03/14 04:18:18;;;;;;;10.85;8.13;;;;;;;;;;5017475;28;20041;-85
2022/03/14 04:20:48;;;;;;;11.05;7.55;;;;;;;;;;5038090;28;20059;-86
2022/03/14 04:23:17;;;;;;;7.78;6.78;;;;;;;;;;5050952;28;20132;-84
2022/03/14 04:25:45;;;;;;;11.93;7.50;;;;;;;;;;5031029;28;20056;-85
2022/03/14 04:28:13;;;;;;;10.18;7.00;;;;;;;;;;5016339;28;20042;-85
2022/03/14 04:30:40;;;;;;;11.05;7.22;;;;;;;;;;5036749;28;20504;-85
2022/03/14 04:33:08;;;;;;;11.18;7.55;;;;;;;;;;5033160;28;20084;-84
2022/03/14 04:35:36;;;;;;;9.70;7.90;;;;;;;;;;5032458;28;20040;-85
2022/03/14 04:38:04;;;;;;;11.48;8.80;;;;;;;;;;5032274;28;20056;-85
2022/03/14 04:40:32;;;;;;;11.32;8.98;;;;;;;;;;5050392;28;20159;-85
2022/03/14 04:43:10;;;;;;;11.77;7.70;;;;;;;;;;5032955;28;20049;-85
2022/03/14 04:45:38;;;;;;;11.52;7.25;;;;;;;;;;5012094;28;20122;-85
2022/03/14 04:48:10;;;;;;;13.68;7.50;;;;;;;;;;5030645;28;20099;-84
2022/03/14 04:50:37;;;;;;;11.75;7.85;;;;;;;;;;5031416;28;20128;-84
2022/03/14 04:53:06;;;;;;;11.55;8.05;;;;;;;;;;5032270;28;20052;-84
2022/03/14 04:55:36;;;;;;;11.10;7.93;;;;;;;;;;5023687;28;20064;-84
2022/03/14 04:58:04;;;;;;;11.60;7.82;;;;;;;;;;5050607;28;20498;-84
2022/03/14 05:00:32;;;;;;;11.70;8.45;;;;;;;;;;5019428;28;20075;-85
2022/03/14 05:03:00;;;;;;;11.18;7.82;;;;;;;;;;5037191;28;20049;-85
2022/03/14 05:05:33;;;;;;;11.20;7.32;;;;;;;;;;5043309;28;20036;-85
2022/03/14 05:08:00;;;;;;;12.95;8.93;;;;;;;;;;5059263;28;20045;-86
2022/03/14 05:10:28;;;;;;;12.20;8.15;;;;;;;;;;5076148;28;20036;-85
2022/03/14 05:12:55;;;;;;;12.43;7.25;;;;;;;;;;5077158;28;20039;-85
2022/03/14 05:15:22;;;;;;;11.70;8.77;;;;;;;;;;5058892;28;20037;-84
2022/03/14 05:17:53;;;;;;;10.65;7.63;;;;;;;;;;5058029;28;20046;-85
2022/03/14 05:20:21;;;;;;;11.65;8.88;;;;;;;;;;5040242;28;20060;-85
2022/03/14 05:22:49;;;;;;;10.68;6.85;;;;;;;;;;5055341;28;20040;-84
2022/03/14 05:25:20;;;;;;;10.98;7.90;;;;;;;;;;5045430;28;20071;-85
2022/03/14 05:27:48;;;;;;;10.90;8.63;;;;;;;;;;5058554;28;20033;-86
2022/03/14 05:30:15;;;;;;;10.30;8.13;;;;;;;;;;5053967;28;20049;-86
2022/03/14 05:32:43;;;;;;;11.05;8.18;;;;;;;;;;5069136;28;20035;-86
2022/03/14 05:35:11;;;;;;;13.32;7.22;;;;;;;;;;5071551;28;20052;-86
2022/03/14 05:37:39;;;;;;;13.43;9.25;;;;;;;;;;5066262;28;20091;-85
2022/03/14 05:40:07;;;;;;;15.00;9.23;;;;;;;;;;5046404;28;20068;-84
2022/03/14 05:42:34;;;;;;;11.23;8.55;;;;;;;;;;5043830;28;20063;-85
2022/03/14 05:45:02;;;;;;;14.57;8.93;;;;;;;;;;5050555;28;20075;-85
2022/03/14 05:47:30;;;;;;;15.75;10.38;;;;;;;;;;5041431;28;20037;-85
2022/03/14 05:49:57;;;;;;;12.45;9.40;;;;;;;;;;5046836;28;20056;-85
2022/03/14 05:52:24;;;;;;;14.13;10.05;;;;;;;;;;5036492;28;20044;-85
2022/03/14 05:54:52;;;;;;;15.55;10.48;;;;;;;;;;5046856;28;20041;-84
2022/03/14 05:57:19;;;;;;;14.52;10.25;;;;;;;;;;5033298;28;20037;-85
2022/03/14 05:59:46;;;;;;;13.50;10.02;;;;;;;;;;5040446;28;20049;-85
2022/03/14 06:02:19;;;;;;;15.43;9.52;;;;;;;;;;5043535;28;20497;-82
2022/03/14 06:04:49;;;;;;;14.65;8.65;;;;;;;;;;4992278;28;20064;-66
2022/03/14 06:07:19;;;;;;;12.30;8.85;;;;;;;;;;5011532;28;20046;-69
2022/03/14 06:09:47;;;;;;;15.25;9.80;;;;;;;;;;5007729;28;20046;-69
2022/03/14 06:12:24;;;;;;;11.20;8.60;;;;;;;;;;5004129;28;20046;-68
2022/03/14 06:14:52;;;;;;;11.93;9.50;;;;;;;;;;5005881;28;20038;-67
2022/03/14 06:17:21;;;;;;;13.57;10.85;;;;;;;;;;5003697;28;20460;-69
2022/03/14 06:19:48;;;;;;;13.75;10.10;;;;;;;;;;5008781;28;20037;-69
2022/03/14 06:22:16;;;;;;;18.25;10.88;;;;;;;;;;5002246;28;20038;-67
2022/03/14 06:24:46;;;;;;;14.02;10.07;;;;;;;;;;5006094;28;20072;-69
2022/03/14 06:27:17;;;;;;;13.13;10.27;;;;;;;;;;5007816;28;20054;-69
2022/03/14 06:29:44;;;;;;;13.25;9.63;;;;;;;;;;5011171;28;20061;-66
2022/03/14 06:32:12;;;;;;;14.07;10.80;;;;;;;;;;4992787;28;20046;-67
2022/03/14 06:34:39;;;;;;;14.15;10.25;;;;;;;;;;5010172;28;20037;-69
2022/03/14 06:37:07;;;;;;;12.73;9.40;;;;;;;;;;4992694;28;20073;-66
2022/03/14 06:39:35;;;;;;;13.35;9.73;;;;;;;;;;5011149;28;20038;-69
2022/03/14 06:42:05;;;;;;;13.07;10.10;;;;;;;;;;5009876;28;20462;-69
2022/03/14 06:44:33;;;;;;;12.82;8.45;;;;;;;;;;5010764;28;20156;-71
2022/03/14 06:47:00;;;;;;;19.33;10.15;;;;;;;;;;5010564;28;20088;-67
2022/03/14 06:49:28;;;;;;;14.50;9.10;;;;;;;;;;5010973;28;20118;-69
2022/03/14 06:51:56;;;;;;;12.40;8.57;;;;;;;;;;5008778;28;20036;-69
2022/03/14 06:54:23;;;;;;;10.18;7.60;;;;;;;;;;5011771;28;20265;-69
2022/03/14 06:56:50;;;;;;;15.73;9.40;;;;;;;;;;5015834;28;20444;-69
2022/03/14 06:59:17;;;;;;;11.35;8.15;;;;;;;;;;5010828;28;20038;-69
2022/03/14 07:01:45;;;;;;;11.13;8.82;;;;;;;;;;5009811;28;20049;-69
2022/03/14 07:04:12;;;;;;;13.18;9.10;;;;;;;;;;5024813;28;20049;-67
2022/03/14 07:06:39;;;;;;;11.70;8.30;;;;;;;;;;5015274;28;20064;-66
2022/03/14 07:09:09;;;;;;;13.20;9.48;;;;;;;;;;5002440;28;20053;-69
2022/03/14 07:11:36;;;;;;;12.98;10.27;;;;;;;;;;5013961;28;20049;-69
2022/03/14 07:14:04;;;;;;;17.67;10.32;;;;;;;;;;5010135;28;20166;-69
2022/03/14 07:16:31;;;;;;;12.05;8.80;;;;;;;;;;5007259;28;20044;-68
2022/03/14 07:18:59;;;;;;;17.08;10.68;;;;;;;;;;5012689;28;20046;-66
2022/03/14 07:21:29;;;;;;;13.13;9.35;;;;;;;;;;5009195;28;20052;-68
2022/03/14 07:23:56;;;;;;;11.77;9.27;;;;;;;;;;5000838;28;20038;-67
2022/03/14 07:26:24;;;;;;;19.48;10.10;;;;;;;;;;5009017;28;20471;-69
2022/03/14 07:28:52;;;;;;;11.70;8.82;;;;;;;;;;5003925;28;20876;-68
2022/03/14 07:31:22;;;;;;;13.38;8.20;;;;;;;;;;5002378;28;20056;-66
2022/03/14 07:33:50;;;;;;;15.35;9.35;;;;;;;;;;5011015;28;20511;-68
2022/03/14 07:36:17;;;;;;;11.10;8.52;;;;;;;;;;5005541;28;20038;-66
2022/03/14 07:38:45;;;;;;;12.68;8.88;;;;;;;;;;4992595;28;20071;-68
2022/03/14 07:41:12;;;;;;;11.77;9.63;;;;;;;;;;5005273;28;20045;-69
2022/03/14 07:43:41;;;;;;;12.48;9.15;;;;;;;;;;5005409;28;20144;-69
2022/03/14 07:46:08;;;;;;;17.13;9.02;;;;;;;;;;4995203;28;20053;-68
2022/03/14 07:48:36;;;;;;;13.98;9.60;;;;;;;;;;5014305;28;20057;-69
2022/03/14 07:51:03;;;;;;;11.68;9.25;;;;;;;;;;5020541;28;20045;-69
2022/03/14 07:53:31;;;;;;;11.25;9.45;;;;;;;;;;4996625;28;20040;-66
2022/03/14 07:55:58;;;;;;;12.88;8.95;;;;;;;;;;5006207;28;20046;-67
2022/03/14 07:58:29;;;;;;;12.40;9.55;;;;;;;;;;5006775;28;20030;-69
2022/03/14 08:00:57;;;;;;;10.98;9.23;;;;;;;;;;4987267;28;20046;-69
2022/03/14 08:03:25;;;;;;;11.90;9.43;;;;;;;;;;5017229;28;20095;-67
2022/03/14 08:05:58;;;;;;;11.02;9.10;;;;;;;;;;5021779;28;20036;-69
2022/03/14 08:08:28;;;;;;;13.63;9.70;;;;;;;;;;5011012;28;20048;-67
2022/03/14 08:10:55;;;;;;;16.05;10.30;;;;;;;;;;5013070;28;20138;-67
2022/03/14 08:13:22;;;;;;;15.13;10.13;;;;;;;;;;5005516;28;20053;-68
2022/03/14 08:15:50;;;;;;;14.38;9.70;;;;;;;;;;5012156;28;20543;-69
2022/03/14 08:18:17;;;;;;;14.00;9.45;;;;;;;;;;5016425;28;20484;-69
2022/03/14 08:20:45;;;;;;;12.52;9.63;;;;;;;;;;5017805;28;20064;-69
2022/03/14 08:23:14;;;;;;;13.18;9.02;;;;;;;;;;5021276;28;20132;-70
2022/03/14 08:25:42;;;;;;;13.95;9.45;;;;;;;;;;5020667;28;20045;-69
2022/03/14 08:28:09;;;;;;;19.30;8.95;;;;;;;;;;4992058;28;20045;-68
2022/03/14 08:30:38;;;;;;;12.30;9.80;;;;;;;;;;5014331;28;20499;-67
2022/03/14 08:33:06;;;;;;;15.20;9.93;;;;;;;;;;5006971;28;20038;-67
2022/03/14 08:35:34;;;;;;;13.88;10.20;;;;;;;;;;5009547;28;20037;-68
2022/03/14 08:38:01;;;;;;;13.80;9.07;;;;;;;;;;5007771;28;20049;-65
2022/03/14 08:40:29;;;;;;;11.00;9.35;;;;;;;;;;5012827;28;20037;-69
2022/03/14 08:42:57;;;;;;;12.27;9.23;;;;;;;;;;4990846;28;20507;-68
2022/03/14 08:45:25;;;;;;;16.15;9.57;;;;;;;;;;5009331;28;20567;-68
2022/03/14 08:47:53;;;;;;;15.98;10.25;;;;;;;;;;5008556;28;20038;-69
2022/03/14 08:50:21;;;;;;;12.65;9.95;;;;;;;;;;4974476;28;20033;-69
2022/03/14 08:52:49;;;;;;;11.77;10.07;;;;;;;;;;5023617;28;20048;-68
2022/03/14 08:55:17;;;;;;;11.55;9.35;;;;;;;;;;5007023;28;20034;-66
2022/03/14 08:57:44;;;;;;;11.15;9.13;;;;;;;;;;5009378;28;20042;-66
2022/03/14 09:00:12;;;;;;;12.60;9.90;;;;;;;;;;5018662;28;20038;-69
2022/03/14 09:02:43;;;;;;;12.80;10.65;;;;;;;;;;4989178;28;20398;-68
2022/03/14 09:05:12;;;;;;;11.80;9.88;;;;;;;;;;4998444;28;20057;-69
2022/03/14 09:07:39;;;;;;;12.98;10.70;;;;;;;;;;4984135;28;20050;-69
2022/03/14 09:10:08;;;;;;;14.07;10.60;;;;;;;;;;5006586;28;20479;-68
2022/03/14 09:12:35;;;;;;;12.10;9.88;;;;;;;;;;4998798;28;20468;-67
2022/03/14 09:15:03;;;;;;;15.25;10.23;;;;;;;;;;5003377;28;20046;-68
2022/03/14 09:17:32;;;;;;;13.00;10.20;;;;;;;;;;4995842;28;20048;-67
2022/03/14 09:20:05;;;;;;;18.50;10.93;;;;;;;;;;4970870;28;20034;-68
2022/03/14 09:22:33;;;;;;;12.45;10.02;;;;;;;;;;4987300;28;20042;-67
2022/03/14 09:25:05;;;;;;;10.05;8.88;;;;;;;;;;4990826;28;20145;-71
2022/03/14 09:27:33;;;;;;;15.43;10.13;;;;;;;;;;4991514;28;20046;-68
2022/03/14 09:30:00;;;;;;;13.95;9.82;;;;;;;;;;4992626;28;20125;-67
2022/03/14 09:32:27;;;;;;;11.38;9.95;;;;;;;;;;4990875;28;20042;-67
2022/03/14 09:34:57;;;;;;;14.85;10.30;;;;;;;;;;4992563;28;20045;-67
2022/03/14 09:37:24;;;;;;;13.98;10.32;;;;;;;;;;4992875;28;20038;-67
2022/03/14 09:39:51;;;;;;;12.65;9.88;;;;;;;;;;4994089;28;20385;-67
2022/03/14 09:42:21;;;;;;;16.50;10.05;;;;;;;;;;4995074;28;20042;-65
2022/03/14 09:44:54;;;;;;;14.27;10.10;;;;;;;;;;4993192;28;20137;-68
2022/03/14 09:47:24;;;;;;;15.43;9.85;;;;;;;;;;4992580;28;20046;-68
2022/03/14 09:52:37;;;;;;;15.35;10.00;;;;;;;;;;5010202;28;20126;-73
2022/03/14 09:55:09;;;;;;;11.55;10.27;;;;;;;;;;5011262;28;20388;-71
2022/03/14 09:57:37;;;;;;;12.02;10.43;;;;;;;;;;4996833;28;20045;-71
2022/03/14 10:00:10;;;;;;;11.23;9.93;;;;;;;;;;5018106;28;20278;-70
2022/03/14 10:02:40;;;;;;;18.10;10.88;;;;;;;;;;5012047;28;20527;-71
2022/03/14 10:05:08;;;;;;;12.48;9.98;;;;;;;;;;4998008;28;20078;-71
2022/03/14 10:07:36;;;;;;;13.52;10.38;;;;;;;;;;4996123;28;20054;-72
2022/03/14 10:10:04;;;;;;;12.93;10.18;;;;;;;;;;4979115;28;20133;-72
2022/03/14 10:12:32;;;;;;;12.32;9.98;;;;;;;;;;5015727;28;20503;-72
2022/03/14 10:15:00;;;;;;;11.80;10.10;;;;;;;;;;4997351;28;20125;-71
2022/03/14 10:17:27;;;;;;;12.60;10.77;;;;;;;;;;4981440;28;20439;-72
2022/03/14 10:19:55;;;;;;;15.57;9.52;;;;;;;;;;5013625;28;20256;-72
2022/03/14 10:22:23;;;;;;;16.55;10.50;;;;;;;;;;4995745;28;20329;-72
2022/03/14 10:25:03;;;;;;;11.18;9.13;;;;;;;;;;5011309;28;20044;-72
2022/03/14 10:27:33;;;;;;;15.20;9.15;;;;;;;;;;5011503;28;20137;-72
2022/03/14 10:30:03;;;;;;;11.27;10.18;;;;;;;;;;4994286;28;20057;-70
2022/03/14 10:32:37;;;;;;;13.50;9.77;;;;;;;;;;4992246;28;20097;-72
2022/03/14 10:35:06;;;;;;;12.68;9.45;;;;;;;;;;4973872;28;20046;-71
2022/03/14 10:37:35;;;;;;;13.30;10.43;;;;;;;;;;4993269;28;20034;-72
2022/03/14 10:40:06;;;;;;;11.90;9.75;;;;;;;;;;5011475;28;20034;-72
2022/03/14 10:42:38;;;;;;;11.02;9.43;;;;;;;;;;5010388;28;20403;-72
2022/03/14 10:45:13;;;;;;;11.52;9.63;;;;;;;;;;4992581;28;20046;-73
2022/03/14 10:47:44;;;;;;;11.10;10.00;;;;;;;;;;5011182;28;20129;-72
2022/03/14 10:50:27;;;;;;;13.68;11.18;;;;;;;;;;4992781;28;20153;-71
2022/03/14 10:53:14;;;;;;;11.75;10.48;;;;;;;;;;4993267;28;20591;-75
2022/03/14 10:55:43;;;;;;;11.38;9.82;;;;;;;;;;4989107;28;20038;-72
2022/03/14 10:58:21;;;;;;;10.32;9.23;;;;;;;;;;4991393;28;20062;-72
2022/03/14 11:00:49;;;;;;;12.43;10.45;;;;;;;;;;4995724;28;20191;-72
2022/03/14 11:03:36;;;;;;;11.48;10.18;;;;;;;;;;4993191;28;20499;-68
2022/03/14 11:06:05;;;;;;;14.15;10.43;;;;;;;;;;5011156;28;20073;-68
2022/03/14 11:08:36;;;;;;;11.38;9.30;;;;;;;;;;4993610;28;20096;-70
2022/03/14 11:11:04;;;;;;;11.52;9.50;;;;;;;;;;5011914;28;20498;-72
2022/03/14 11:13:32;;;;;;;9.68;8.77;;;;;;;;;;5030952;28;20398;-72
2022/03/14 11:16:02;;;;;;;11.35;8.95;;;;;;;;;;5012303;28;20425;-72
2022/03/14 11:18:30;;;;;;;11.73;8.77;;;;;;;;;;5030251;28;20049;-72
2022/03/14 11:21:00;;;;;;;12.27;10.73;;;;;;;;;;5022958;28;20395;-72
2022/03/14 11:23:27;;;;;;;11.32;10.00;;;;;;;;;;5009298;28;20045;-71
2022/03/14 11:25:55;;;;;;;10.80;9.70;;;;;;;;;;4990421;28;20044;-71
2022/03/14 11:28:24;;;;;;;11.15;9.40;;;;;;;;;;5010337;28;20046;-71
2022/03/14 11:30:58;;;;;;;10.82;9.70;;;;;;;;;;5001050;28;20045;-69
2022/03/14 11:33:27;;;;;;;9.73;8.60;;;;;;;;;;4989700;28;20504;-72
2022/03/14 11:35:54;;;;;;;10.98;8.73;;;;;;;;;;4993232;28;20133;-71
2022/03/14 11:38:21;;;;;;;9.90;8.20;;;;;;;;;;4971924;28;20043;-68
2022/03/14 11:40:51;;;;;;;9.57;8.57;;;;;;;;;;4979358;28;20089;-74
2022/03/14 11:43:19;;;;;;;10.85;9.10;;;;;;;;;;5010372;28;20045;-71
2022/03/14 11:45:47;;;;;;;15.20;8.52;;;;;;;;;;5005997;28;20052;-70
2022/03/14 11:48:14;;;;;;;9.35;8.45;;;;;;;;;;4974948;28;20145;-71
2022/03/14 11:50:46;;;;;;;9.10;8.20;;;;;;;;;;5012755;28;20046;-72
2022/03/14 11:53:21;;;;;;;10.43;8.75;;;;;;;;;;5011905;28;20064;-71
2022/03/14 11:55:55;;;;;;;10.20;9.15;;;;;;;;;;5027035;28;20049;-72
2022/03/14 11:58:35;;;;;;;11.57;9.18;;;;;;;;;;5027762;28;20042;-70
2022/03/14 12:01:18;;;;;;;9.68;8.77;;;;;;;;;;5029058;28;20033;-71
2022/03/14 12:03:50;;;;;;;10.68;8.35;;;;;;;;;;5029066;28;20044;-72
2022/03/14 12:06:38;;;;;;;8.88;8.02;;;;;;;;;;5015196;28;20049;-72
2022/03/14 12:09:05;;;;;;;11.88;9.55;;;;;;;;;;5052291;28;20045;-69
2022/03/14 12:11:37;;;;;;;9.25;8.30;;;;;;;;;;5051858;28;20128;-71
2022/03/14 12:14:09;;;;;;;9.38;8.35;;;;;;;;;;5031103;28;20045;-72
2022/03/14 12:16:38;;;;;;;8.95;7.38;;;;;;;;;;5030702;28;20044;-71
2022/03/14 12:19:30;;;;;;;9.35;7.75;;;;;;;;;;5065623;28;20395;-69
2022/03/14 12:21:58;;;;;;;10.13;8.90;;;;;;;;;;5065631;28;20044;-71
2022/03/14 12:24:37;;;;;;;9.52;8.15;;;;;;;;;;5064889;28;20075;-72
2022/03/14 12:27:15;;;;;;;11.00;8.27;;;;;;;;;;5065076;28;20155;-72
2022/03/14 12:29:43;;;;;;;12.55;8.52;;;;;;;;;;5063302;28;20048;-68
2022/03/14 12:32:26;;;;;;;9.30;7.63;;;;;;;;;;5047071;28;20099;-72
2022/03/14 12:35:17;;;;;;;8.18;7.47;;;;;;;;;;5053004;28;20133;-73
2022/03/14 12:37:47;;;;;;;8.85;7.50;;;;;;;;;;5039895;28;20477;-73
2022/03/14 12:40:20;;;;;;;9.30;7.95;;;;;;;;;;5045436;28;20505;-71
2022/03/14 12:42:52;;;;;;;10.77;8.50;;;;;;;;;;5044487;28;20033;-71
2022/03/14 12:45:19;;;;;;;9.10;8.20;;;;;;;;;;5046541;28;20042;-68
2022/03/14 12:48:05;;;;;;;9.20;8.30;;;;;;;;;;5046408;28;20072;-70
2022/03/14 12:50:51;;;;;;;12.50;8.45;;;;;;;;;;5059455;28;20091;-71
2022/03/14 12:53:27;;;;;;;9.38;8.07;;;;;;;;;;5029336;28;20083;-68
2022/03/14 12:55:56;;;;;;;8.50;7.65;;;;;;;;;;5044234;28;20044;-70
2022/03/14 12:58:28;;;;;;;9.10;7.97;;;;;;;;;;5062247;28;20517;-71
2022/03/14 13:00:56;;;;;;;8.70;7.53;;;;;;;;;;5059478;28;20044;-70
2022/03/14 13:03:25;;;;;;;9.90;8.15;;;;;;;;;;5042669;28;20071;-71
2022/03/14 13:05:53;;;;;;;8.55;7.75;;;;;;;;;;5050182;28;20040;-70
2022/03/14 13:08:21;;;;;;;10.23;8.05;;;;;;;;;;5043921;28;20052;-68
2022/03/14 13:10:52;;;;;;;9.27;8.38;;;;;;;;;;5047044;28;20048;-72
2022/03/14 13:13:24;;;;;;;9.35;8.40;;;;;;;;;;5047795;28;20041;-72
2022/03/14 13:16:03;;;;;;;10.23;8.48;;;;;;;;;;5053426;28;20065;-72
2022/03/14 13:18:38;;;;;;;9.13;7.63;;;;;;;;;;5060565;28;20081;-72
2022/03/14 13:21:20;;;;;;;8.30;7.50;;;;;;;;;;5055574;28;20059;-71
2022/03/14 13:23:52;;;;;;;10.32;7.93;;;;;;;;;;5047412;28;20043;-71
2022/03/14 13:26:22;;;;;;;12.25;8.30;;;;;;;;;;5050583;28;20064;-72
2022/03/14 13:28:50;;;;;;;8.82;7.93;;;;;;;;;;5040194;28;20103;-72
2022/03/14 13:31:18;;;;;;;11.52;8.43;;;;;;;;;;5030615;28;20128;-69
2022/03/14 13:33:47;;;;;;;8.77;7.90;;;;;;;;;;5035397;28;20053;-69
2022/03/14 13:36:15;;;;;;;8.18;7.38;;;;;;;;;;5042880;28;20493;-72
2022/03/14 13:38:49;;;;;;;8.90;7.97;;;;;;;;;;5031749;28;20121;-72
2022/03/14 13:41:18;;;;;;;9.18;7.75;;;;;;;;;;5015514;28;20045;-71
2022/03/14 13:43:47;;;;;;;11.75;8.20;;;;;;;;;;5030178;28;20124;-71
2022/03/14 13:46:28;;;;;;;8.20;7.40;;;;;;;;;;5038383;28;20052;-70
2022/03/14 13:48:57;;;;;;;8.35;7.60;;;;;;;;;;5044795;28;20080;-72
2022/03/14 13:51:26;;;;;;;8.40;7.60;;;;;;;;;;5032587;28;20409;-71
2022/03/14 13:53:54;;;;;;;10.68;7.95;;;;;;;;;;5030965;28;20045;-70
2022/03/14 13:56:23;;;;;;;8.93;8.05;;;;;;;;;;5032232;28;20041;-71
2022/03/14 13:59:09;;;;;;;10.40;8.23;;;;;;;;;;5027424;28;20053;-72
2022/03/14 14:01:45;;;;;;;11.27;8.60;;;;;;;;;;5029762;28;20505;-71
2022/03/14 14:04:16;;;;;;;9.85;8.50;;;;;;;;;;5037068;28;20038;-72
2022/03/14 14:06:44;;;;;;;;;;;;;;;;;;5040355;28;20083;-71
2022/03/14 14:09:18;;;;;;;8.40;7.60;;;;;;;;;;5049333;28;19920;-73
2022/03/14 14:11:56;;;;;;;20.10;8.90;;;;;;;;;;5043563;28;20059;-68
2022/03/14 14:14:27;;;;;;;9.82;8.35;;;;;;;;;;5032470;28;20379;-69
2022/03/14 14:17:07;;;;;;;9.23;8.32;;;;;;;;;;5028777;28;20390;-71
2022/03/14 14:19:36;;;;;;;10.65;9.55;;;;;;;;;;5047234;28;20424;-72
2022/03/14 14:22:03;;;;;;;11.85;10.65;;;;;;;;;;5033928;28;20073;-72
2022/03/14 14:24:31;;;;;;;11.13;9.80;;;;;;;;;;5030272;28;20136;-70
2022/03/14 14:26:58;;;;;;;10.20;8.35;;;;;;;;;;5030356;28;20037;-72
2022/03/14 14:29:41;;;;;;;10.35;9.10;;;;;;;;;;5030941;28;20041;-73
2022/03/14 14:32:18;;;;;;;9.57;8.60;;;;;;;;;;5045948;28;20048;-72
2022/03/14 14:34:47;;;;;;;9.52;8.10;;;;;;;;;;5049296;28;20122;-71
2022/03/14 14:37:16;;;;;;;11.25;8.35;;;;;;;;;;5040858;28;20045;-72
2022/03/14 14:39:43;;;;;;;10.70;7.88;;;;;;;;;;5046788;28;20489;-72
2022/03/14 14:42:14;;;;;;;7.65;6.90;;;;;;;;;;5035610;28;20160;-72
2022/03/14 14:44:42;;;;;;;8.93;7.97;;;;;;;;;;5028073;28;20063;-69
2022/03/14 14:47:12;;;;;;;10.05;8.18;;;;;;;;;;5035703;28;20135;-73